Detall de PIREP

Printer-friendly versionPDF version

[2008/11/02 13:44:00]
Flight IATA:CT0001
Pilot Number:041
Company ICAO:CAT
Aircraft Type:F50/A
PAX:36
Departing Airport: LERS
Destination Airport: LEPA
Alternate Airport:LEIB
Online: VATSIM
Route:GARBI1R B31 LARPA B31 TOLSO1P
Flight Level:FL070
No Slew and time accel
No pause
Crash detect
Detect pilot in Cockpit between each 30 and 45 minutes
13:44 Zero fuel Weight: 38641 Lbs, Fuel Weight: 4481 Lbs
13:44 VATSIM:LERS 021330Z 27009KT 250V310 9999 FEW025 BKN045 12/07 Q1001
13:44 VATSIM:LEPA 021330Z 19022KT 6000 RA FEW007 BKN030 18/13 Q1006 NOSIG
13:45 VOICE CATALONIAN
13:49 Parking Brakes off
13:58 Take-off
13:58 Take off Weight: 43012 Lbs
13:58 Wind: 283º @ 008 Knots Heading: 249º
13:58 POS N41º 08´ 47´´ E001º 09´ 50´´
13:58 Gear Up: 156 Knots
13:58 Flaps:1 at 156 Knots
13:58 Flaps:0 at 197 Knots
14:05 TOC
14:05 Fuel Weight: 4125 Lb
14:13 Wind:202º@025 Knots Hea
ding: 099º Ground Speed: 255 Knots Altitude 12824 ft
14:26 TOD
14:26 Fuel Weight: 3641 Lb
14:28 Wind:208º@031 Knots Heading: 125º Ground Speed: 238 Knots Altitude 5068 ft
14:38 Flaps:1 at 200 Knots
14:38 Gear Down: 179 Knots
14:39 Flaps:2 at 180 Knots
14:43 Wind:212º@026 Knots Heading: 231º Ground Speed: 101 Knots Altitude 721 ft
14:44 TouchDown:Rate -437 ft/min Speed: 114 Knots
14:44 VATSIM:LEPA 021400Z 21021G31KT 180V240 7000 FEW007 SCT035 18/13 Q1006 NOSIG
14:44 Land
14:44 Wind:218º@021 Knots
14:44 Heading: 234º
14:44 Flight Duration: 00:46
14:44 Landing Weight: 41937 Lbs
14:44 POS N39º 33´ 01´´ E002º 45´ 03´´
14:49 Parking brakes on
14:49 Block to Block Duration: 01:00
14:49 Final Fuel: 3260 Lbls
14:49 Spent Fuel: 1221 Lbls
14:49 Flight Length: 168 NM
14:49 TOD Land Length: 56 NM

Exportar CSV

Powered by Drupal - Modified by Danger4k